This is the latest recevied weather packets stored in our database for station/object EA8DNP-14. If no packets are shown the sender has not sent any weather packets the latest 10 day(s).
| Time | Temp. | Humidity | Pressure | Rain* | Wind** | Luminosity | Snow |
|---|---|---|---|---|---|---|---|
| 1787387009 | 23.89° C | 46% | 902.9 hPa | - | - | - | - |
| 1787386109 | 23.33° C | 48% | 902.8 hPa | - | - | - | - |
| 1787385209 | 22.78° C | 50% | 902.7 hPa | - | - | - | - |
| 1787384308 | 20° C | 55% | 902.6 hPa | - | - | - | - |
| 1787383408 | 17.78° C | 60% | 902.5 hPa | - | - | - | - |
| 1787382508 | 13.89° C | 67% | 902.3 hPa | - | - | - | - |
| 1787381608 | 9.44° C | 74% | 902.4 hPa | - | - | - | - |
| 1787380708 | 8.33° C | 75% | 902.5 hPa | - | - | - | - |
| 1787379811 | 8.33° C | 74% | 902.2 hPa | - | - | - | - |
| 1787378908 | 8.33° C | 75% | 902.1 hPa | - | - | - | - |
| 1787378007 | 8.33° C | 74% | 902.1 hPa | - | - | - | - |
| 1787377107 | 8.33° C | 74% | 902.2 hPa | - | - | - | - |
| 1787376207 | 8.33° C | 74% | 902 hPa | - | - | - | - |
| 1787375307 | 8.33° C | 74% | 901.9 hPa | - | - | - | - |
| 1787374407 | 8.33° C | 74% | 902 hPa | - | - | - | - |
| 1787373507 | 8.33° C | 73% | 902 hPa | - | - | - | - |
| 1787372607 | 8.33° C | 73% | 902.1 hPa | - | - | - | - |
| 1787371707 | 8.33° C | 73% | 902 hPa | - | - | - | - |
| 1787370807 | 8.89° C | 72% | 902.1 hPa | - | - | - | - |
| 1787369907 | 8.89° C | 71% | 902.2 hPa | - | - | - | - |
| 1787369007 | 8.89° C | 71% | 902.2 hPa | - | - | - | - |
| 1787368106 | 8.89° C | 71% | 902.3 hPa | - | - | - | - |
| 1787367206 | 8.89° C | 70% | 902.5 hPa | - | - | - | - |
| 1787366306 | 9.44° C | 70% | 902.5 hPa | - | - | - | - |
| 1787365406 | 9.44° C | 72% | 902.5 hPa | - | - | - | - |
* Rain since midnight (hover to see other rain measurements)
** Current wind speed in m/s (hover to see current wind gust speed)